الصفحة الرئيسية
METAR-TAF:

METAR-TAF

مطار :

ميناء القاهرة الجوي

القاهرة, مصر

دائرة عرض: 30-08N, خط طول: 031-24E, ارتفاع: 64 متر

مراقبة الطقس الحالي

تاريخ ووقت الإصدار 6 دقيقة قبل الساعة 00:30UTC
ريح 8 عقدة من الشمال
درجة الحرارة 26°درجة مئوية
الرطوبة 79%
ضغط 1009 hPa
الرؤية 10 كم أو أكثر
الغيوم لا تقل 1500 م ولا وجود لمزنة ركامية السحاب الأسود

METAR: HECA 160030Z 01008KT CAVOK 26/22 Q1009 NOSIG

زمن: 02:36 (00:36 UTC)

توقعات

تاريخ ووقت الإصدار 1ساعة و 36 دقيقة قبل الساعة 23:00UTC
التوقعات صالحة من16 الساعة 00 UTC إلى 17 الساعة 06 UTC
ريح 10 عقدة من الشمال
الرؤية 10 كم أو أكثر
الغيوم لا تقل 1500 م ولا وجود لمزنة ركامية السحاب الأسود
مؤقت
من 16 الساعة 01 UTC إلى 16 الساعة 18 UTC
ريح 3 عقدةمن اتجاهات متغيرة
الرؤية: 6000 متر
غيوم متفرقة على ارتفاع 2500 قدم
نظرية الاحتمالات 30% :
مؤقت
من 16 الساعة 02 UTC إلى 16 الساعة 06 UTC
الرؤية: 3000 متر
العجاج

TAF: HECA 152300Z 1600/1706 01010KT CAVOK TEMPO 1601/1618 VRB03KT 6000 SCT025 PROB30 TEMPO 1602/1606 3000 HZ

أرصاد الطقس والتوقعات من أكثر من 4000 مطار (تقارير الطقس للمطار METAR والتنبؤ بالطقس بالمطارTAF).

المحطات المتاحة هي النقط الصفراء والحمراء على الخريطة.

حرك المؤشر فوق النقطة لمعرفة اسم المحطة.

ثم انقر لمعرفة أرصاد وتوقعات الطقس.

لتغيير الخارطة: اضغط على الأزرار الخضراء مع رمز الصليب الأسود للتكبير. على الزر الأخضر مع شرطة للتصغير، أو على الأسهم الخضراء للخرائط المجاورة.


METAR-TAF: